Flight Track Log - Related Links

Times and Time Zones

All times are in EDT time to prevent confusion due to time zone crossing. See the N493TM flight status page for this flight to view local times or setup timezone preferences in your user account.

Time Position Orientation Groundspeed Altitude Reporting Facility
EDT Latitude Longitude Course Direction KTS MPH feet Rate Location/Type
Fri 09:57:50 PM 43.6500 -79.6833 123° Southeast 170 196 3,300  Level Toronto Center
Fri 09:58:50 PM 43.6000 -79.7000 194° South 200 230 5,800 2,700 Climbing Toronto Center
Fri 09:59:50 PM 43.5500 -79.6333 136° Southeast 290 334 8,700 2,950 Climbing Toronto Center
Fri 10:00:50 PM 43.5333 -79.5000 100° East 330 380 11,700 2,750 Climbing Toronto Center
Fri 10:01:50 PM 43.5167 -79.3833 101° East 350 403 14,200 2,400 Climbing Toronto Center
Fri 10:02:50 PM 43.4833 -79.2167 105° East 380 437 16,500 2,200 Climbing Toronto Center
Fri 10:03:00 PM 43.3463 -78.8100 123° Southeast  Level Estimated
Fri 10:03:50 PM 43.4500 -79.0833 109° East 390 449 18,600  Level Toronto Center
Fri 10:04:50 PM 43.4167 -78.9500 109° East 390 449 20,800 2,000 Climbing Toronto Center
Fri 10:05:50 PM 43.3667 -78.8000 115° Southeast 400 460 22,600 1,450 Climbing Toronto Center
Fri 10:06:50 PM 43.3333 -78.6500 107° East 420 483 23,700 1,050 Climbing Toronto Center
Fri 10:07:50 PM 43.2667 -78.4833 119° Southeast 450 518 24,700 650 Climbing Toronto Center
Fri 10:08:50 PM 43.2167 -78.3333 115° Southeast 460 529 25,000 150 Climbing Toronto Center
Fri 10:09:50 PM 43.1667 -78.1667 112° Southeast 490 564 25,000  Level Toronto Center
Fri 10:10:50 PM 43.1167 -77.9667 109° East 500 575 25,000  Level Toronto Center
Fri 10:11:50 PM 43.0667 -77.8000 112° Southeast 510 587 25,000  Level Toronto Center
Fri 10:12:20 PM 43.0606 -77.7569 101° East 507 583 25,000  Level Cleveland Center
Fri 10:13:22 PM 43.0064 -77.5767 112° Southeast 508 585 25,000  Level Cleveland Center
Fri 10:14:23 PM 42.9522 -77.3975 112° Southeast 507 583 25,000  Level Cleveland Center
Fri 10:15:25 PM 42.8983 -77.2200 112° Southeast 504 580 25,000  Level Cleveland Center
Fri 10:16:26 PM 42.8439 -77.0419 113° Southeast 506 582 25,000  Level Cleveland Center
Fri 10:17:29 PM 42.7856 -76.8569 113° Southeast 514 592 25,000  Level Boston Center
Fri 10:18:28 PM 42.7319 -76.6833 113° Southeast 507 583 25,000  Level Boston Center
Fri 10:19:28 PM 42.6778 -76.5044 112° Southeast 507 583 25,000  Level Boston Center
Fri 10:20:26 PM 42.6214 -76.3314 114° Southeast 507 583 25,000  Level Boston Center
Fri 10:21:27 PM 42.5631 -76.1417 113° Southeast 507 583 25,000  Level Boston Center
Fri 10:22:28 PM 42.5061 -75.9636 113° Southeast 502 578 25,000  Level Boston Center
Fri 10:23:26 PM 42.4508 -75.7917 113° Southeast 502 578 25,000  Level Boston Center
Fri 10:24:26 PM 42.3956 -75.6200 114° Southeast 502 578 25,000  Level Boston Center
Fri 10:25:28 PM 42.3394 -75.4542 115° Southeast 496 571 25,000 -246 Level Boston Center
Fri 10:26:28 PM 42.2894 -75.2944 113° Southeast 491 565 24,500 -1,736 Descending Boston Center
Fri 10:27:29 PM 42.2292 -75.1150 114° Southeast 491 565 21,500 -2,746 Descending Boston Center
Fri 10:28:26 PM 42.1767 -74.9531 114° Southeast 474 545 19,100 -1,373 Descending Boston Center
Fri 10:29:27 PM 42.1169 -74.8164 120° Southeast 449 517 18,800 -800 Descending Boston Center
Fri 10:30:26 PM 42.0614 -74.6828 119° Southeast 424 488 17,500 -1,361 Descending Boston Center
Fri 10:31:26 PM 42.0075 -74.5553 120° Southeast 424 488 16,100 -1,438 Descending Boston Center
Fri 10:32:27 PM 41.9456 -74.4081 119° Southeast 419 482 14,600 -1,400 Descending Boston Center
Fri 10:33:26 PM 41.8956 -74.2892 119° Southeast 414 476 13,300 -1,450 Descending Boston Center
Fri 10:34:27 PM 41.8289 -74.1536 123° Southeast 409 471 11,700 -1,339 Descending Boston Center
Fri 10:35:27 PM 41.7422 -74.0872 150° Southeast 369 425 10,600 -1,150 Descending Boston Center
Fri 10:36:27 PM 41.6681 -74.0353 152° Southeast 336 387 9,400 -1,316 Descending Boston Center
Fri 10:37:21 PM 41.6000 -73.9833 150° Southeast 294 338 8,100 -1,421 Descending New York TRACON
Fri 10:38:21 PM 41.5333 -73.9500 159° South 297 342 6,700 -1,000 Descending New York TRACON
Fri 10:39:21 PM 41.4500 -73.9000 156° South 277 319 6,100 -600 Descending New York TRACON
Fri 10:40:21 PM 41.3833 -73.8333 143° Southeast 297 342 5,500 -900 Descending New York TRACON
Fri 10:41:21 PM 41.3167 -73.7833 151° Southeast 290 334 4,300 -1,200 Descending New York TRACON
Fri 10:42:21 PM 41.2500 -73.7167 143° Southeast 280 322 3,100 -800 Descending New York TRACON
Fri 10:43:21 PM 41.2000 -73.6667 143° Southeast 280 322 2,700 -500 Descending New York TRACON
Fri 10:44:21 PM 41.1333 -73.6167 151° Southeast 256 295 2,100 -300 Descending New York TRACON
Fri 10:45:21 PM 41.0833 -73.5833 153° Southeast 197 227 2,100  Level New York TRACON
Fri 10:46:15 PM 41.0333 -73.6167 207° Southwest 184 212 2,100 -263 Level New York TRACON
Fri 10:47:15 PM 41.0167 -73.6500 236° Southwest 127 146 1,600 -550 Descending New York TRACON
Fri 10:48:15 PM 41.0333 -73.6833 304° West 121 139 1,000 -600 Descending New York TRACON

Login

Don't have an account? Register now (free) for customized features, flight alerts, and more!